Time;durP1;ratioP1;P1;durP2;ratioP2;P2;SDS_P1;SDS_P2;PMS_P1;PMS_P2;Temp;Humidity;BMP_temperature;BMP_pressure;BME280_temperature;BME280_humidity;BME280_pressure;Samples;Min_cycle;Max_cycle;Signal;HPM_P1;HPM_P2
2021/06/23 00:01:14;;;;;;;6.62;2.40;;;18.30;99.90;;;;;;2010120;70;21055;-75
2021/06/23 00:03:40;;;;;;;4.00;2.30;;;18.30;99.90;;;;;;2007080;70;21124;-75
2021/06/23 00:06:06;;;;;;;3.60;2.10;;;18.30;99.90;;;;;;2007170;70;21106;-75
2021/06/23 00:08:32;;;;;;;3.72;2.17;;;18.30;99.90;;;;;;1970687;72;21045;-74
2021/06/23 00:10:59;;;;;;;7.20;2.33;;;18.30;99.90;;;;;;2010330;71;21027;-76
2021/06/23 00:13:27;;;;;;;3.72;2.22;;;18.30;99.90;;;;;;2006115;70;21055;-76
2021/06/23 00:15:52;;;;;;;2.27;2.08;;;18.40;99.90;;;;;;1967443;72;21088;-75
2021/06/23 00:18:19;;;;;;;5.55;2.27;;;18.40;99.90;;;;;;2004869;70;21039;-76
2021/06/23 00:20:45;;;;;;;9.73;2.47;;;18.40;99.90;;;;;;1965022;73;21032;-74
2021/06/23 00:23:11;;;;;;;3.85;1.90;;;18.50;99.90;;;;;;2006468;70;21137;-74
2021/06/23 00:25:37;;;;;;;7.37;1.75;;;18.50;99.90;;;;;;2010332;70;21020;-75
2021/06/23 00:28:03;;;;;;;4.28;2.02;;;18.40;99.90;;;;;;2002695;70;21082;-75
2021/06/23 00:30:29;;;;;;;2.10;1.90;;;18.50;99.90;;;;;;2005418;70;21121;-75
2021/06/23 00:32:55;;;;;;;7.55;1.98;;;18.50;99.90;;;;;;2006060;70;21055;-75
2021/06/23 00:35:21;;;;;;;2.52;1.80;;;18.50;99.90;;;;;;2014076;70;21460;-75
2021/06/23 00:37:48;;;;;;;5.67;2.17;;;18.50;99.90;;;;;;2010341;71;21428;-75
2021/06/23 00:40:14;;;;;;;2.77;1.98;;;18.40;99.90;;;;;;2014037;70;21479;-77
2021/06/23 00:42:40;;;;;;;2.12;1.60;;;18.30;99.90;;;;;;2009418;70;21640;-75
2021/06/23 00:45:06;;;;;;;7.97;2.65;;;18.20;99.90;;;;;;2016990;70;21112;-76
2021/06/23 00:47:32;;;;;;;3.52;1.67;;;18.10;99.90;;;;;;2003065;70;21016;-75
2021/06/23 00:49:58;;;;;;;3.05;1.85;;;18.20;99.90;;;;;;1966965;72;21027;-75
2021/06/23 00:52:25;;;;;;;3.30;2.15;;;18.20;99.90;;;;;;1947240;74;21055;-75
2021/06/23 00:54:51;;;;;;;5.97;1.77;;;18.10;99.90;;;;;;1931321;73;21484;-74
2021/06/23 00:57:20;;;;;;;3.17;1.80;;;18.00;99.90;;;;;;1998202;70;21506;-75
2021/06/23 00:59:46;;;;;;;3.55;1.92;;;18.00;99.90;;;;;;1967535;73;21056;-74
2021/06/23 01:02:12;;;;;;;9.03;1.80;;;18.00;99.90;;;;;;2006895;70;21020;-75
2021/06/23 01:04:38;;;;;;;2.15;1.80;;;18.10;99.90;;;;;;2010159;70;21444;-75
2021/06/23 01:07:04;;;;;;;4.05;1.82;;;18.10;99.90;;;;;;2010801;70;21576;-75
2021/06/23 01:09:30;;;;;;;1.98;1.62;;;18.10;99.90;;;;;;2012428;70;21133;-74
2021/06/23 01:11:57;;;;;;;2.70;1.85;;;18.10;99.90;;;;;;2006302;70;21110;-75
2021/06/23 01:14:23;;;;;;;1.82;1.57;;;18.10;99.90;;;;;;2006375;70;21044;-74
2021/06/23 01:16:49;;;;;;;2.08;1.87;;;18.10;99.90;;;;;;2000611;70;21046;-74
2021/06/23 01:19:15;;;;;;;1.90;1.72;;;18.10;99.90;;;;;;1966562;72;21117;-75
2021/06/23 01:21:41;;;;;;;2.87;2.00;;;18.00;99.90;;;;;;2012115;70;21046;-75
2021/06/23 01:24:07;;;;;;;4.55;1.75;;;18.00;99.90;;;;;;2014540;70;21161;-75
2021/06/23 01:26:33;;;;;;;3.17;2.00;;;18.00;99.90;;;;;;2028238;71;21166;-75
2021/06/23 01:29:00;;;;;;;4.80;2.10;;;18.00;99.90;;;;;;2021453;70;21125;-75
2021/06/23 01:31:26;;;;;;;2.02;1.80;;;18.00;99.90;;;;;;2011581;70;21047;-76
2021/06/23 01:33:52;;;;;;;8.43;1.77;;;17.90;99.90;;;;;;1962715;72;21029;-75
2021/06/23 01:36:18;;;;;;;3.95;2.37;;;17.90;99.90;;;;;;2006445;70;21118;-74
2021/06/23 01:38:44;;;;;;;2.15;1.90;;;17.90;99.90;;;;;;2007004;70;21056;-75
2021/06/23 01:41:10;;;;;;;3.25;1.85;;;17.80;99.90;;;;;;2008436;70;21139;-75
2021/06/23 01:43:36;;;;;;;3.05;2.20;;;17.80;99.90;;;;;;2019764;70;21119;-75
2021/06/23 01:46:02;;;;;;;8.78;2.40;;;17.70;99.90;;;;;;1964915;72;21009;-76
2021/06/23 01:48:29;;;;;;;9.65;2.05;;;17.70;99.90;;;;;;2010319;70;21113;-76
2021/06/23 01:50:55;;;;;;;4.22;2.00;;;17.80;99.90;;;;;;2010217;71;21024;-76
2021/06/23 01:53:21;;;;;;;3.52;2.20;;;17.80;99.90;;;;;;2006982;70;21121;-76
2021/06/23 01:55:49;;;;;;;3.30;1.70;;;17.80;99.90;;;;;;2010098;70;21076;-76
2021/06/23 01:58:15;;;;;;;3.47;2.12;;;17.80;99.90;;;;;;2009941;70;21475;-76
2021/06/23 02:00:41;;;;;;;3.85;1.67;;;17.70;99.90;;;;;;2004937;70;21056;-76
2021/06/23 02:03:07;;;;;;;2.20;1.60;;;17.60;99.90;;;;;;1973369;72;21095;-76
2021/06/23 02:05:33;;;;;;;2.75;1.60;;;17.60;99.90;;;;;;1945770;74;21072;-75
2021/06/23 02:07:59;;;;;;;1.65;1.55;;;17.70;99.90;;;;;;2010266;70;21147;-75
2021/06/23 02:10:26;;;;;;;3.80;1.57;;;17.60;99.90;;;;;;2026909;71;21008;-76
2021/06/23 02:12:52;;;;;;;5.70;1.25;;;17.60;99.90;;;;;;2019844;70;21095;-75
2021/06/23 02:15:18;;;;;;;2.33;1.57;;;17.60;99.90;;;;;;2014005;71;21476;-75
2021/06/23 02:17:44;;;;;;;3.25;1.42;;;17.50;99.90;;;;;;2010223;70;21469;-76
2021/06/23 02:20:10;;;;;;;2.35;1.32;;;17.50;99.90;;;;;;2010347;70;21512;-76
2021/06/23 02:22:36;;;;;;;1.30;1.20;;;17.40;99.90;;;;;;2006518;70;21450;-76
2021/06/23 02:25:02;;;;;;;1.75;1.20;;;17.40;99.90;;;;;;2002680;70;21454;-76
2021/06/23 02:27:28;;;;;;;2.00;0.98;;;17.40;99.90;;;;;;2013392;70;21588;-75
2021/06/23 02:29:55;;;;;;;8.25;1.32;;;17.30;99.90;;;;;;2006697;70;21038;-76
2021/06/23 02:32:21;;;;;;;1.50;1.30;;;17.30;99.90;;;;;;2014837;70;21040;-75
2021/06/23 02:34:48;;;;;;;2.90;1.50;;;17.30;99.90;;;;;;1972339;69;21069;-75
2021/06/23 02:37:14;;;;;;;5.22;1.40;;;17.20;99.90;;;;;;2012679;68;21122;-76
2021/06/23 02:39:40;;;;;;;2.17;1.02;;;17.20;99.90;;;;;;2006827;70;21023;-76
2021/06/23 02:42:06;;;;;;;2.67;1.17;;;17.20;99.90;;;;;;2002756;70;21042;-76
2021/06/23 02:44:33;;;;;;;2.20;1.10;;;17.20;99.90;;;;;;2010091;71;21120;-75
2021/06/23 02:46:59;;;;;;;1.85;1.02;;;17.20;99.90;;;;;;2005393;70;21460;-76
2021/06/23 02:49:25;;;;;;;1.02;0.95;;;17.20;99.90;;;;;;1963262;72;21137;-75
2021/06/23 02:51:51;;;;;;;1.77;0.93;;;17.20;99.90;;;;;;2010315;71;21017;-75
2021/06/23 02:54:18;;;;;;;5.97;1.40;;;17.20;99.90;;;;;;2010096;71;21083;-75
2021/06/23 02:56:45;;;;;;;4.35;1.15;;;17.10;99.90;;;;;;2005926;70;21529;-75
2021/06/23 02:59:11;;;;;;;3.50;1.52;;;17.10;99.90;;;;;;1967362;72;21420;-76
2021/06/23 03:01:38;;;;;;;1.87;1.07;;;17.00;99.90;;;;;;2011667;70;21063;-75
2021/06/23 03:04:04;;;;;;;2.02;0.88;;;17.00;99.90;;;;;;2006812;70;21029;-76
2021/06/23 03:06:30;;;;;;;0.70;0.70;;;16.90;99.90;;;;;;2010175;70;21128;-75
2021/06/23 03:08:56;;;;;;;1.50;0.90;;;16.80;99.90;;;;;;2010324;71;21121;-75
2021/06/23 03:11:22;;;;;;;2.25;0.95;;;16.70;99.90;;;;;;2010557;71;21056;-75
2021/06/23 03:13:48;;;;;;;1.22;0.98;;;16.70;99.90;;;;;;2006416;70;21577;-75
2021/06/23 03:16:14;;;;;;;2.12;1.17;;;16.60;99.90;;;;;;2010710;70;21476;-75
2021/06/23 03:18:40;;;;;;;0.82;0.82;;;16.50;99.90;;;;;;2016398;71;21443;-76
2021/06/23 03:21:07;;;;;;;0.90;0.90;;;16.50;99.90;;;;;;2020708;70;21583;-75
2021/06/23 03:23:34;;;;;;;6.30;0.82;;;16.40;99.90;;;;;;2005972;70;21124;-76
2021/06/23 03:26:00;;;;;;;1.75;1.02;;;16.40;99.90;;;;;;2010365;70;21028;-76
2021/06/23 03:28:26;;;;;;;3.33;1.10;;;16.40;99.90;;;;;;2009210;70;21047;-75
2021/06/23 03:30:52;;;;;;;4.45;1.10;;;16.40;99.90;;;;;;2011513;71;21035;-75
2021/06/23 03:33:18;;;;;;;2.75;1.60;;;16.30;99.90;;;;;;2010494;71;21436;-75
2021/06/23 03:35:44;;;;;;;5.05;1.00;;;16.40;99.90;;;;;;2010221;70;21440;-76
2021/06/23 03:38:10;;;;;;;1.27;1.17;;;16.40;99.90;;;;;;2010265;70;21417;-76
2021/06/23 03:40:37;;;;;;;3.62;1.40;;;16.30;99.90;;;;;;2003442;70;21478;-76
2021/06/23 03:43:03;;;;;;;1.12;1.12;;;16.40;99.90;;;;;;2012795;70;21068;-76
2021/06/23 03:45:29;;;;;;;1.98;1.47;;;16.40;99.90;;;;;;2007441;70;21111;-76
2021/06/23 03:47:55;;;;;;;2.65;1.70;;;16.50;99.90;;;;;;2012170;70;21028;-76
2021/06/23 03:50:21;;;;;;;1.50;1.40;;;16.50;99.90;;;;;;2016891;70;21044;-76
2021/06/23 03:52:48;;;;;;;1.87;1.47;;;16.60;99.90;;;;;;2016888;70;21171;-75
2021/06/23 03:55:25;;;;;;;6.87;1.60;;;16.70;99.90;;;;;;2005670;70;21496;-76
2021/06/23 03:57:49;;;;;;;4.62;1.70;;;16.70;99.90;;;;;;2009710;70;21060;-76
2021/06/23 04:00:15;;;;;;;4.15;1.12;;;16.70;99.90;;;;;;2010416;71;21017;-75
2021/06/23 04:02:41;;;;;;;3.20;1.20;;;16.70;99.90;;;;;;2000655;70;21046;-76
2021/06/23 04:05:07;;;;;;;1.47;1.17;;;16.70;99.90;;;;;;1965668;72;21274;-75
2021/06/23 04:07:33;;;;;;;2.55;1.40;;;16.60;99.90;;;;;;2014171;70;21060;-76
2021/06/23 04:10:00;;;;;;;1.82;1.20;;;16.70;99.90;;;;;;2007672;70;21043;-76
2021/06/23 04:12:26;;;;;;;1.00;0.95;;;16.70;99.90;;;;;;2012701;70;21024;-75
2021/06/23 04:14:52;;;;;;;4.25;1.10;;;16.80;99.90;;;;;;2010800;70;21124;-76
2021/06/23 04:17:18;;;;;;;1.95;1.47;;;16.80;99.90;;;;;;2019813;71;21072;-75
2021/06/23 04:19:44;;;;;;;1.65;1.00;;;16.80;99.90;;;;;;2016209;70;21079;-75
2021/06/23 04:22:10;;;;;;;0.95;0.90;;;16.90;99.90;;;;;;1966357;72;21060;-76
2021/06/23 04:24:36;;;;;;;5.10;1.30;;;16.90;99.90;;;;;;2006694;70;21072;-76
2021/06/23 04:27:03;;;;;;;1.12;0.98;;;16.90;99.90;;;;;;2010347;70;21125;-76
2021/06/23 04:29:29;;;;;;;2.10;1.22;;;16.90;99.90;;;;;;2006748;70;21023;-76
2021/06/23 04:31:55;;;;;;;8.15;1.40;;;17.00;99.90;;;;;;2005830;70;21128;-76
2021/06/23 04:34:21;;;;;;;1.22;1.15;;;17.00;99.90;;;;;;1963566;72;21582;-76
2021/06/23 04:36:47;;;;;;;2.42;1.17;;;17.00;99.90;;;;;;2010281;71;21464;-76
2021/06/23 04:39:13;;;;;;;1.25;1.12;;;17.00;99.90;;;;;;2010210;70;21428;-76
2021/06/23 04:41:39;;;;;;;5.05;1.65;;;17.00;99.90;;;;;;2010319;70;21475;-76
2021/06/23 04:44:05;;;;;;;3.22;1.30;;;16.90;99.90;;;;;;2010160;71;21573;-76
2021/06/23 04:46:33;;;;;;;3.40;1.77;;;16.90;99.90;;;;;;2010350;70;21045;-76
2021/06/23 04:48:59;;;;;;;1.85;1.02;;;16.90;99.90;;;;;;2008775;70;21561;-76
2021/06/23 04:51:25;;;;;;;1.17;1.07;;;16.90;99.90;;;;;;2015151;70;21050;-75
2021/06/23 04:53:51;;;;;;;2.75;1.67;;;17.00;99.90;;;;;;2015706;71;21016;-75
2021/06/23 04:56:18;;;;;;;2.10;1.45;;;17.00;99.90;;;;;;2010360;71;21172;-75
2021/06/23 04:58:44;;;;;;;2.85;1.70;;;17.00;99.90;;;;;;2010414;70;21040;-76
2021/06/23 05:01:10;;;;;;;5.78;2.40;;;17.00;99.90;;;;;;2010290;70;21137;-74
2021/06/23 05:03:36;;;;;;;7.25;1.70;;;17.00;99.90;;;;;;2005736;70;21028;-75
2021/06/23 05:06:02;;;;;;;2.60;1.85;;;17.00;99.90;;;;;;2009540;70;21126;-75
2021/06/23 05:08:28;;;;;;;5.20;1.85;;;17.00;99.90;;;;;;1967475;72;21561;-76
2021/06/23 05:10:54;;;;;;;1.95;1.65;;;17.10;99.90;;;;;;2010328;71;21553;-76
2021/06/23 05:13:21;;;;;;;2.90;1.87;;;17.10;99.90;;;;;;2010269;70;21468;-76
2021/06/23 05:15:48;;;;;;;3.37;1.52;;;17.30;99.90;;;;;;2003474;70;21117;-75
2021/06/23 05:18:14;;;;;;;3.40;1.80;;;17.30;99.90;;;;;;1963099;72;21041;-76
2021/06/23 05:20:40;;;;;;;3.70;1.62;;;17.40;99.90;;;;;;2013098;70;21055;-75
2021/06/23 05:23:06;;;;;;;3.40;1.40;;;17.50;99.90;;;;;;2007673;70;21544;-75
2021/06/23 05:25:32;;;;;;;4.00;1.60;;;17.80;99.90;;;;;;2021584;70;21508;-75
2021/06/23 05:27:59;;;;;;;1.72;1.12;;;18.40;99.90;;;;;;2007763;70;21475;-73
2021/06/23 05:30:26;;;;;;;1.15;1.05;;;19.30;99.90;;;;;;2018486;70;21179;-74
2021/06/23 05:32:52;;;;;;;5.45;1.02;;;20.20;99.90;;;;;;2008437;70;21043;-74
2021/06/23 05:35:18;;;;;;;1.00;0.80;;;21.50;99.90;;;;;;2013971;70;21168;-77
2021/06/23 05:37:45;;;;;;;3.25;0.90;;;22.60;99.90;;;;;;2010274;71;21037;-76
2021/06/23 05:40:11;;;;;;;2.83;0.88;;;23.30;99.90;;;;;;2010195;70;21032;-78
2021/06/23 05:42:37;;;;;;;10.32;1.05;;;23.70;99.90;;;;;;2009919;70;21041;-78
2021/06/23 05:45:03;;;;;;;1.32;0.70;;;23.60;99.90;;;;;;1967806;72;21047;-76
2021/06/23 05:47:29;;;;;;;2.15;0.80;;;23.70;99.90;;;;;;2010339;71;21030;-76
2021/06/23 05:49:55;;;;;;;3.52;0.98;;;23.80;99.90;;;;;;2010409;71;21032;-76
2021/06/23 05:52:21;;;;;;;2.75;0.82;;;23.80;99.90;;;;;;2018878;70;21043;-71
2021/06/23 05:54:48;;;;;;;1.17;0.60;;;25.40;99.90;;;;;;2007727;70;21115;-71
2021/06/23 05:57:14;;;;;;;5.47;0.70;;;26.10;99.90;;;;;;2006831;70;21149;-72
2021/06/23 05:59:40;;;;;;;2.40;0.75;;;25.90;99.90;;;;;;2003018;70;21015;-72
2021/06/23 06:02:06;;;;;;;4.22;1.07;;;27.10;99.90;;;;;;2010281;71;21031;-72
2021/06/23 06:04:32;;;;;;;4.37;0.80;;;28.10;99.90;;;;;;2010210;70;21048;-71
2021/06/23 06:06:58;;;;;;;3.02;0.55;;;27.10;99.90;;;;;;1999187;70;21046;-72
2021/06/23 06:09:24;;;;;;;1.05;0.65;;;26.90;99.90;;;;;;2008029;70;21109;-72
2021/06/23 06:11:50;;;;;;;3.22;0.80;;;27.20;99.90;;;;;;1961667;72;21031;-71
2021/06/23 06:14:17;;;;;;;1.52;0.70;;;28.10;99.90;;;;;;2003059;70;21040;-69
2021/06/23 06:16:43;;;;;;;1.40;0.75;;;28.00;99.90;;;;;;2008843;70;21035;-70
2021/06/23 06:19:09;;;;;;;1.30;0.60;;;26.70;99.90;;;;;;1961672;72;21124;-73
2021/06/23 06:21:35;;;;;;;3.52;0.70;;;26.10;99.90;;;;;;1939649;73;21036;-74
2021/06/23 06:24:01;;;;;;;1.72;0.70;;;25.10;99.90;;;;;;2002462;70;21054;-73
2021/06/23 06:26:29;;;;;;;0.75;0.40;;;24.30;99.90;;;;;;2013316;70;21076;-73
2021/06/23 06:28:55;;;;;;;0.50;0.50;;;23.70;99.90;;;;;;2003085;70;21059;-74
2021/06/23 06:31:21;;;;;;;1.67;0.70;;;22.80;99.90;;;;;;2008898;70;21041;-74
2021/06/23 06:33:49;;;;;;;4.65;0.62;;;21.90;99.90;;;;;;1964321;73;21056;-74
2021/06/23 06:36:15;;;;;;;1.10;0.70;;;21.60;99.90;;;;;;2006656;70;21472;-74
2021/06/23 06:38:41;;;;;;;3.80;0.72;;;21.50;99.90;;;;;;2006907;70;21519;-74
2021/06/23 06:41:07;;;;;;;3.08;0.60;;;21.80;99.90;;;;;;2004429;70;21459;-74
2021/06/23 06:43:33;;;;;;;5.37;0.75;;;22.00;99.90;;;;;;2021426;70;21492;-74
2021/06/23 06:45:59;;;;;;;7.10;0.70;;;21.80;99.90;;;;;;2007429;70;21472;-74
2021/06/23 06:48:25;;;;;;;6.40;0.80;;;21.80;99.90;;;;;;1965682;72;21461;-75
2021/06/23 06:50:52;;;;;;;1.65;0.75;;;22.00;99.90;;;;;;2010344;70;21156;-74
2021/06/23 06:53:18;;;;;;;0.50;0.50;;;21.90;99.90;;;;;;1961275;72;21183;-74
2021/06/23 06:55:44;;;;;;;3.40;0.60;;;22.40;99.90;;;;;;2010430;70;21020;-74
2021/06/23 06:58:13;;;;;;;1.05;0.70;;;22.40;99.90;;;;;;2015635;70;21084;-75
2021/06/23 07:00:39;;;;;;;3.40;0.68;;;22.90;99.90;;;;;;2021666;70;21035;-74
2021/06/23 07:03:05;;;;;;;0.60;0.50;;;23.80;99.90;;;;;;2011985;70;21053;-74
2021/06/23 07:05:31;;;;;;;4.40;0.80;;;24.70;99.90;;;;;;1966998;72;21059;-74
2021/06/23 07:07:58;;;;;;;1.35;0.55;;;25.10;99.90;;;;;;2010219;70;21125;-75
2021/06/23 07:10:24;;;;;;;0.72;0.30;;;25.30;99.90;;;;;;2010244;71;20980;-75
2021/06/23 07:12:50;;;;;;;1.30;0.50;;;26.30;99.90;;;;;;2006369;70;21128;-75
2021/06/23 07:15:16;;;;;;;0.42;0.40;;;26.60;99.90;;;;;;2017121;71;21040;-75
2021/06/23 07:17:43;;;;;;;6.47;1.32;;;26.60;99.90;;;;;;2010102;70;21553;-76
2021/06/23 07:20:09;;;;;;;3.05;0.50;;;27.10;99.90;;;;;;2011870;70;21464;-75
2021/06/23 07:22:35;;;;;;;5.17;0.93;;;27.50;99.90;;;;;;2015321;71;21548;-73
2021/06/23 07:25:01;;;;;;;1.70;0.80;;;27.70;99.90;;;;;;2007996;70;21128;-74
2021/06/23 07:27:27;;;;;;;2.12;0.50;;;26.90;99.90;;;;;;2012517;71;21113;-74
2021/06/23 07:29:53;;;;;;;0.72;0.70;;;27.10;99.90;;;;;;2003534;70;21025;-75
2021/06/23 07:37:48;;;;;;;5.90;0.50;;;26.60;99.90;;;;;;2009505;70;21562;-74
2021/06/23 07:40:15;;;;;;;0.37;0.37;;;26.90;99.90;;;;;;2016828;70;21052;-75
2021/06/23 07:42:42;;;;;;;3.22;0.68;;;26.50;99.90;;;;;;2012854;70;21055;-75
2021/06/23 07:45:09;;;;;;;0.88;0.33;;;27.40;99.90;;;;;;2017661;70;21582;-75
2021/06/23 07:47:38;;;;;;;0.95;0.30;;;27.80;99.90;;;;;;2006096;70;21133;-75
2021/06/23 07:50:03;;;;;;;2.22;0.93;;;27.70;99.90;;;;;;2005561;70;21079;-75
2021/06/23 07:55:41;;;;;;;1.75;0.55;;;26.80;99.90;;;;;;1920802;72;21471;-74
2021/06/23 08:08:10;;;;;;;0.65;0.45;;;25.90;99.90;;;;;;2010301;71;21094;-74
2021/06/23 08:11:05;;;;;;;0.33;0.33;;;25.30;99.90;;;;;;2010289;71;21113;-74
2021/06/23 08:13:28;;;;;;;1.32;0.33;;;25.10;99.90;;;;;;2017556;70;21468;-74
2021/06/23 08:15:54;;;;;;;0.35;0.33;;;25.60;99.90;;;;;;2011774;70;21129;-75
2021/06/23 08:18:20;;;;;;;0.40;0.40;;;25.60;99.90;;;;;;2003110;70;21460;-74
2021/06/23 08:20:46;;;;;;;0.75;0.70;;;25.10;99.90;;;;;;2006900;70;21133;-75
2021/06/23 08:23:12;;;;;;;0.72;0.50;;;25.20;99.90;;;;;;2013345;70;21024;-75
2021/06/23 08:25:39;;;;;;;2.47;0.50;;;25.90;99.90;;;;;;2006859;70;21090;-75
2021/06/23 08:28:05;;;;;;;0.50;0.35;;;25.60;99.90;;;;;;2007843;70;21124;-75
2021/06/23 08:30:31;;;;;;;1.27;0.72;;;25.70;99.90;;;;;;1965693;73;21048;-74
2021/06/23 08:32:58;;;;;;;4.95;0.42;;;25.40;99.90;;;;;;2010580;71;21050;-75
2021/06/23 08:35:24;;;;;;;3.27;0.50;;;25.20;99.90;;;;;;2010208;70;21025;-74
2021/06/23 08:37:50;;;;;;;0.42;0.33;;;25.10;99.90;;;;;;2010394;70;21040;-75
2021/06/23 08:40:17;;;;;;;2.20;0.42;;;25.20;99.90;;;;;;2005965;70;21042;-76
2021/06/23 08:42:43;;;;;;;1.80;0.75;;;25.20;99.90;;;;;;1997096;71;21070;-75
2021/06/23 08:45:10;;;;;;;1.27;0.40;;;25.20;99.90;;;;;;1975358;72;21036;-75
2021/06/23 08:47:36;;;;;;;4.90;0.55;;;25.30;99.90;;;;;;1976805;72;21042;-75
2021/06/23 08:50:02;;;;;;;0.50;0.50;;;24.90;99.90;;;;;;1978283;72;21067;-74
2021/06/23 08:52:28;;;;;;;2.55;0.70;;;25.50;99.90;;;;;;1976721;72;21082;-74
2021/06/23 08:54:55;;;;;;;2.00;0.40;;;25.90;99.90;;;;;;1969684;72;21036;-75
2021/06/23 08:57:22;;;;;;;2.62;0.90;;;25.60;99.90;;;;;;1982357;72;21508;-74
2021/06/23 08:59:48;;;;;;;3.20;0.40;;;25.50;99.90;;;;;;1977207;72;21548;-73
2021/06/23 09:02:14;;;;;;;0.60;0.42;;;25.70;99.90;;;;;;1960295;72;21541;-74
2021/06/23 09:04:40;;;;;;;4.30;1.40;;;26.00;99.90;;;;;;1972870;72;21495;-73
2021/06/23 09:07:06;;;;;;;1.85;0.60;;;26.30;99.90;;;;;;1972974;72;21540;-75
2021/06/23 09:09:34;;;;;;;0.40;0.40;;;27.00;99.90;;;;;;1972837;72;21528;-73
2021/06/23 09:12:00;;;;;;;1.15;0.45;;;26.50;99.90;;;;;;1968739;72;21152;-74
2021/06/23 09:14:26;;;;;;;1.45;0.40;;;25.70;99.90;;;;;;1973705;72;21027;-74
2021/06/23 09:16:52;;;;;;;1.42;0.40;;;26.10;99.90;;;;;;1976700;72;21140;-73
2021/06/23 09:19:18;;;;;;;0.35;0.35;;;25.70;99.90;;;;;;1975901;72;21046;-74
2021/06/23 09:21:44;;;;;;;0.33;0.33;;;25.20;99.90;;;;;;1973556;72;21152;-74
2021/06/23 09:24:10;;;;;;;0.33;0.30;;;25.30;99.90;;;;;;1974881;72;21031;-73
2021/06/23 09:26:37;;;;;;;0.45;0.23;;;25.30;99.90;;;;;;1985057;72;21148;-72
2021/06/23 09:29:03;;;;;;;1.27;0.40;;;25.50;99.90;;;;;;1971404;72;21136;-73
2021/06/23 09:31:30;;;;;;;0.40;0.30;;;25.90;99.90;;;;;;1977138;72;21066;-74
2021/06/23 09:33:58;;;;;;;2.65;0.30;;;26.00;99.90;;;;;;1962521;72;21050;-73
2021/06/23 09:36:24;;;;;;;2.12;0.40;;;26.20;99.90;;;;;;1980425;72;21070;-74
2021/06/23 09:38:50;;;;;;;2.75;0.37;;;25.90;99.90;;;;;;1975048;72;21036;-74
2021/06/23 09:41:16;;;;;;;0.55;0.20;;;26.10;99.90;;;;;;1974983;72;21062;-74
2021/06/23 09:43:42;;;;;;;0.68;0.40;;;25.70;99.90;;;;;;1976879;72;21068;-73
2021/06/23 09:46:08;;;;;;;0.72;0.20;;;25.90;99.90;;;;;;1973685;72;21118;-74
2021/06/23 09:48:34;;;;;;;0.23;0.08;;;26.40;99.90;;;;;;1967179;72;21024;-73
2021/06/23 09:51:01;;;;;;;0.20;0.20;;;26.10;99.90;;;;;;1960156;72;21476;-73
2021/06/23 09:53:27;;;;;;;0.20;0.10;;;25.90;99.90;;;;;;1974425;73;21524;-74
2021/06/23 09:55:53;;;;;;;0.20;0.20;;;26.10;99.90;;;;;;1974395;73;21475;-74
2021/06/23 09:58:29;;;;;;;1.77;0.40;;;26.20;99.90;;;;;;1973807;72;21472;-73
2021/06/23 10:00:49;;;;;;;0.20;0.20;;;26.40;99.90;;;;;;1971680;72;21363;-73
2021/06/23 10:03:16;;;;;;;2.95;0.40;;;26.00;99.90;;;;;;1974303;72;21061;-74
2021/06/23 10:05:42;;;;;;;0.60;0.50;;;26.00;99.90;;;;;;1973587;72;21070;-74
2021/06/23 10:08:08;;;;;;;0.30;0.30;;;26.60;99.90;;;;;;1971147;72;21223;-74
2021/06/23 10:10:34;;;;;;;0.25;0.15;;;26.40;99.90;;;;;;1973999;72;21066;-74
2021/06/23 10:13:00;;;;;;;0.40;0.40;;;26.90;99.90;;;;;;1968464;72;21028;-74
2021/06/23 10:15:27;;;;;;;0.50;0.30;;;27.20;99.90;;;;;;1980006;72;21140;-74
2021/06/23 10:17:54;;;;;;;0.80;0.23;;;27.20;99.90;;;;;;1967354;72;21050;-74
2021/06/23 10:20:20;;;;;;;0.45;0.20;;;27.30;99.90;;;;;;1979002;72;21149;-74
2021/06/23 10:22:46;;;;;;;0.30;0.10;;;27.30;99.90;;;;;;1981709;72;21043;-74
2021/06/23 10:25:12;;;;;;;0.57;0.17;;;27.10;99.90;;;;;;1981622;72;21063;-73
2021/06/23 10:27:38;;;;;;;2.08;0.30;;;26.60;99.90;;;;;;1974689;73;21171;-73
2021/06/23 10:30:04;;;;;;;0.10;0.10;;;26.80;99.90;;;;;;1972314;72;21131;-73
2021/06/23 10:32:32;;;;;;;0.30;0.13;;;27.40;99.90;;;;;;1979326;72;21049;-73
2021/06/23 10:34:58;;;;;;;0.20;0.20;;;27.20;99.90;;;;;;1974687;73;21135;-75
2021/06/23 10:37:24;;;;;;;1.30;0.60;;;27.70;99.90;;;;;;1974590;72;21172;-74
2021/06/23 10:39:50;;;;;;;0.30;0.30;;;27.40;99.90;;;;;;1970747;72;21538;-74
2021/06/23 10:42:17;;;;;;;0.20;0.20;;;27.80;99.90;;;;;;1974723;73;21500;-75
2021/06/23 10:44:43;;;;;;;2.45;0.20;;;28.10;99.90;;;;;;1974315;72;21428;-74
2021/06/23 10:47:10;;;;;;;0.45;0.20;;;28.00;99.90;;;;;;1971295;72;21072;-74
2021/06/23 10:49:37;;;;;;;0.20;0.20;;;27.70;99.90;;;;;;1974501;73;21557;-74
2021/06/23 10:52:03;;;;;;;0.53;0.33;;;27.30;99.90;;;;;;1974588;72;21158;-74
2021/06/23 10:54:29;;;;;;;0.70;0.45;;;27.80;99.90;;;;;;1972201;72;21167;-74
2021/06/23 10:56:55;;;;;;;0.40;0.40;;;27.50;99.90;;;;;;1982928;72;21032;-75
2021/06/23 10:59:21;;;;;;;0.88;0.47;;;26.70;99.90;;;;;;1971154;72;21145;-73
2021/06/23 11:01:47;;;;;;;0.28;0.28;;;26.50;99.90;;;;;;1974667;73;21267;-74
2021/06/23 11:04:17;;;;;;;0.80;0.30;;;26.50;99.90;;;;;;1977900;72;21059;-78
2021/06/23 11:06:43;;;;;;;0.20;0.10;;;27.10;99.90;;;;;;1976070;72;21195;-75
2021/06/23 11:09:09;;;;;;;0.25;0.25;;;27.50;99.90;;;;;;1978797;72;21171;-75
2021/06/23 11:11:35;;;;;;;0.17;0.15;;;27.60;99.90;;;;;;1965407;72;21132;-76
2021/06/23 11:14:01;;;;;;;0.37;0.17;;;28.40;99.90;;;;;;1976869;72;21067;-74
2021/06/23 11:16:27;;;;;;;1.55;0.20;;;27.60;99.90;;;;;;1981058;72;21140;-74
2021/06/23 11:18:53;;;;;;;0.15;0.15;;;27.30;99.90;;;;;;1976907;72;21051;-74
2021/06/23 11:21:21;;;;;;;0.10;0.10;;;27.60;99.90;;;;;;1974271;72;21140;-73
2021/06/23 11:23:47;;;;;;;1.07;0.23;;;27.70;99.90;;;;;;1971123;72;21163;-75
2021/06/23 11:26:13;;;;;;;0.53;0.28;;;27.70;99.90;;;;;;1972547;72;21137;-74
2021/06/23 11:28:40;;;;;;;0.30;0.20;;;28.20;99.90;;;;;;1976750;72;21067;-74
2021/06/23 11:31:09;;;;;;;0.53;0.20;;;28.90;99.90;;;;;;1977138;72;21093;-73
2021/06/23 11:33:35;;;;;;;0.20;0.10;;;28.90;99.90;;;;;;1984534;72;21194;-73
2021/06/23 11:36:01;;;;;;;0.42;0.20;;;28.00;99.90;;;;;;1983128;72;21464;-73
2021/06/23 11:38:27;;;;;;;0.20;0.17;;;27.90;99.90;;;;;;1974411;72;21521;-73
2021/06/23 11:40:53;;;;;;;0.85;0.30;;;28.60;99.90;;;;;;1971562;72;21630;-73
2021/06/23 11:43:21;;;;;;;0.50;0.20;;;28.20;99.90;;;;;;1983881;72;21056;-73
2021/06/23 11:45:47;;;;;;;0.65;0.20;;;28.00;99.90;;;;;;1971092;72;21133;-71
2021/06/23 11:48:13;;;;;;;0.10;0.10;;;28.20;99.90;;;;;;1974235;72;21125;-73
2021/06/23 11:50:46;;;;;;;0.90;0.30;;;28.80;99.90;;;;;;1977637;72;21096;-76
2021/06/23 11:53:10;;;;;;;0.30;0.30;;;28.40;99.90;;;;;;1972539;72;21065;-75
2021/06/23 11:55:37;;;;;;;0.25;0.25;;;27.60;99.90;;;;;;1974471;72;21065;-75
2021/06/23 11:58:03;;;;;;;1.62;0.50;;;27.20;99.90;;;;;;1974327;73;21055;-75
2021/06/23 12:00:30;;;;;;;4.42;0.30;;;27.00;99.90;;;;;;1974646;72;21111;-75
2021/06/23 12:02:56;;;;;;;0.62;0.20;;;27.30;99.90;;;;;;1977642;72;21036;-76
2021/06/23 12:05:22;;;;;;;2.85;0.20;;;27.30;99.90;;;;;;1974666;72;21573;-76
2021/06/23 12:07:49;;;;;;;0.20;0.20;;;27.50;99.90;;;;;;1971095;72;21550;-76
2021/06/23 12:10:16;;;;;;;0.47;0.30;;;27.30;99.90;;;;;;1966630;72;21063;-77
2021/06/23 12:12:44;;;;;;;0.42;0.13;;;27.10;99.90;;;;;;1968937;72;21648;-76
2021/06/23 12:15:11;;;;;;;0.10;0.10;;;27.20;99.90;;;;;;1974284;72;21074;-76
2021/06/23 12:17:38;;;;;;;0.10;0.10;;;27.50;99.90;;;;;;1991764;72;21128;-76
2021/06/23 12:20:04;;;;;;;1.20;0.20;;;28.00;99.90;;;;;;1979111;72;21117;-76
2021/06/23 12:22:31;;;;;;;1.05;0.20;;;27.60;99.90;;;;;;1974561;72;21055;-76
2021/06/23 12:24:58;;;;;;;0.30;0.20;;;27.90;99.90;;;;;;1974336;72;21140;-75
2021/06/23 12:27:24;;;;;;;0.20;0.13;;;28.20;99.90;;;;;;1974543;73;21036;-75
2021/06/23 12:29:52;;;;;;;1.57;0.30;;;28.50;99.90;;;;;;1971426;72;21056;-75
2021/06/23 12:32:18;;;;;;;0.88;0.17;;;28.50;99.90;;;;;;1974480;72;21100;-76
2021/06/23 12:34:44;;;;;;;0.40;0.20;;;29.20;99.90;;;;;;1971434;72;21136;-77
2021/06/23 12:37:10;;;;;;;10.23;0.47;;;28.90;99.90;;;;;;1971973;72;21059;-75
2021/06/23 12:39:36;;;;;;;4.65;2.90;;;28.20;99.90;;;;;;1973132;72;21036;-75
2021/06/23 12:42:03;;;;;;;0.98;0.47;;;27.60;99.90;;;;;;1973381;72;21479;-76
2021/06/23 12:44:29;;;;;;;0.45;0.10;;;27.50;99.90;;;;;;1975089;72;21607;-75
2021/06/23 12:46:55;;;;;;;0.20;0.20;;;28.00;99.90;;;;;;1970739;72;21051;-76
2021/06/23 12:49:21;;;;;;;1.75;0.15;;;28.70;99.90;;;;;;1981566;72;21137;-76
2021/06/23 12:51:47;;;;;;;0.90;0.30;;;29.00;99.90;;;;;;1970201;72;21034;-76
2021/06/23 12:54:14;;;;;;;0.93;0.23;;;29.90;99.90;;;;;;1966164;72;21469;-75
2021/06/23 12:56:40;;;;;;;0.70;0.20;;;31.20;99.90;;;;;;1970632;72;21470;-75
2021/06/23 12:59:06;;;;;;;0.20;0.20;;;31.40;98.30;;;;;;1974577;73;21463;-76
2021/06/23 13:01:32;;;;;;;0.10;0.10;;;32.10;97.90;;;;;;1974389;72;21549;-76